createdAt,value
2023-09-22T00:00:02.537Z,69.58
2023-09-22T00:00:34.582Z,69.90
2023-09-22T00:01:06.606Z,69.90
2023-09-22T00:01:38.635Z,70.06
2023-09-22T00:02:10.733Z,69.66
2023-09-22T00:02:46.450Z,69.75
2023-09-22T00:03:18.799Z,69.41
2023-09-22T00:03:51.162Z,69.47
2023-09-22T00:04:23.196Z,69.55
2023-09-22T00:04:55.472Z,69.63
2023-09-22T00:05:27.567Z,70.20
2023-09-22T00:05:59.716Z,69.91
2023-09-22T00:06:31.743Z,70.01
2023-09-22T00:07:03.713Z,70.14
2023-09-22T00:07:35.674Z,70.27
2023-09-22T00:08:08.049Z,69.52
2023-09-22T00:08:40.322Z,69.67
2023-09-22T00:09:12.461Z,70.05
2023-09-22T00:09:44.417Z,70.29
2023-09-22T00:10:16.540Z,69.87
2023-09-22T00:10:48.609Z,70.04
2023-09-22T00:11:20.597Z,69.86
2023-09-22T00:11:52.516Z,69.80
2023-09-22T00:12:24.453Z,69.81
2023-09-22T00:12:56.531Z,70.58
2023-09-22T00:13:28.456Z,70.56
2023-09-22T00:14:00.398Z,70.35
2023-09-22T00:14:32.512Z,70.18
2023-09-22T00:15:07.175Z,70.02
2023-09-22T00:15:39.151Z,70.03
2023-09-22T00:16:11.354Z,69.96
2023-09-22T00:16:44.157Z,70.45
2023-09-22T00:17:17.527Z,70.31
2023-09-22T00:17:49.677Z,70.24
2023-09-22T00:18:21.916Z,70.68
2023-09-22T00:18:53.856Z,70.80
2023-09-22T00:19:26.192Z,70.67
2023-09-22T00:19:58.104Z,70.21
2023-09-22T00:20:31.391Z,70.67
2023-09-22T00:21:05.850Z,70.70
2023-09-22T00:21:37.952Z,70.86
2023-09-22T00:22:11.201Z,71.18
2023-09-22T00:22:44.473Z,70.99
2023-09-22T00:23:16.415Z,71.30
2023-09-22T00:23:48.350Z,71.27
2023-09-22T00:24:21.195Z,71.38
2023-09-22T00:24:53.216Z,70.78
2023-09-22T00:25:25.194Z,70.91
2023-09-22T00:25:57.125Z,71.52
2023-09-22T00:26:29.039Z,70.84
2023-09-22T00:27:01.079Z,71.56
2023-09-22T00:27:33.350Z,70.91
2023-09-22T00:28:05.660Z,71.02
2023-09-22T00:28:37.629Z,71.50
2023-09-22T00:29:09.573Z,71.17
2023-09-22T00:29:41.732Z,71.30
2023-09-22T00:30:13.875Z,71.75
2023-09-22T00:30:45.869Z,71.31
2023-09-22T00:31:18.053Z,71.48
2023-09-22T00:31:50.123Z,72.19
2023-09-22T00:32:22.595Z,72.00
2023-09-22T00:32:54.684Z,71.54
2023-09-22T00:33:26.809Z,71.90
2023-09-22T00:33:58.868Z,71.65
2023-09-22T00:34:32.381Z,71.65
2023-09-22T00:35:05.276Z,72.52
2023-09-22T00:35:37.271Z,71.90
2023-09-22T00:36:09.636Z,71.51
2023-09-22T00:36:41.628Z,72.10
2023-09-22T00:37:13.975Z,71.88
2023-09-22T00:37:45.898Z,72.47
2023-09-22T00:38:17.925Z,72.55
2023-09-22T00:38:49.879Z,71.94
2023-09-22T00:39:22.151Z,72.56
2023-09-22T00:39:55.345Z,72.59
2023-09-22T00:40:27.375Z,72.00
2023-09-22T00:40:59.335Z,72.57
2023-09-22T00:41:31.665Z,71.94
2023-09-22T00:42:06.849Z,72.42
2023-09-22T00:42:38.844Z,72.68
2023-09-22T00:43:11.780Z,72.31
2023-09-22T00:43:44.074Z,72.64
2023-09-22T00:44:16.642Z,72.49
2023-09-22T00:44:48.722Z,72.94
2023-09-22T00:45:21.142Z,72.93
2023-09-22T00:45:54.357Z,72.81
2023-09-22T00:46:27.416Z,72.95
2023-09-22T00:47:00.790Z,72.64
2023-09-22T00:47:32.821Z,73.13
2023-09-22T00:48:05.626Z,73.24
2023-09-22T00:48:38.887Z,73.41
2023-09-22T00:49:11.421Z,73.15
2023-09-22T00:49:44.162Z,73.05
2023-09-22T00:50:16.261Z,73.60
2023-09-22T00:50:49.126Z,73.39
2023-09-22T00:51:21.153Z,72.85
2023-09-22T00:51:53.332Z,73.15
2023-09-22T00:52:26.690Z,73.52
2023-09-22T00:52:58.744Z,73.50
2023-09-22T00:53:32.867Z,73.40
2023-09-22T00:54:04.951Z,72.92
2023-09-22T00:54:37.779Z,73.12
2023-09-22T00:55:10.786Z,72.74
2023-09-22T00:55:42.958Z,73.54
2023-09-22T00:56:16.967Z,72.76
2023-09-22T00:56:49.204Z,72.85
2023-09-22T00:57:21.581Z,73.02
2023-09-22T00:57:53.648Z,73.31
2023-09-22T00:58:25.660Z,73.39
2023-09-22T00:58:57.895Z,73.31
2023-09-22T00:59:29.862Z,73.13
2023-09-22T01:00:01.838Z,72.96
2023-09-22T01:00:34.473Z,73.60
2023-09-22T01:01:06.559Z,73.50
2023-09-22T01:01:38.708Z,73.37
2023-09-22T01:02:12.404Z,73.21
2023-09-22T01:02:44.524Z,73.59
2023-09-22T01:03:17.158Z,73.37
2023-09-22T01:03:55.033Z,73.73
2023-09-22T01:04:27.849Z,73.69
2023-09-22T01:04:59.833Z,73.80
2023-09-22T01:05:34.233Z,73.61
2023-09-22T01:06:10.403Z,73.42
2023-09-22T01:06:44.847Z,73.68
2023-09-22T01:07:17.094Z,74.02
2023-09-22T01:07:49.009Z,73.84
2023-09-22T01:08:20.946Z,73.54
2023-09-22T01:08:52.872Z,73.87
2023-09-22T01:09:26.547Z,73.47
2023-09-22T01:10:08.709Z,73.44
2023-09-22T01:10:43.908Z,73.38
2023-09-22T01:11:15.839Z,73.39
2023-09-22T01:11:47.797Z,73.94
2023-09-22T01:12:19.786Z,73.73
2023-09-22T01:12:52.450Z,74.00
2023-09-22T01:13:24.382Z,74.18
2023-09-22T01:13:56.313Z,73.55
2023-09-22T01:14:28.288Z,74.02
2023-09-22T01:15:01.613Z,73.71
2023-09-22T01:15:38.330Z,73.95
2023-09-22T01:16:10.473Z,74.03
2023-09-22T01:16:42.850Z,73.66
2023-09-22T01:17:15.064Z,73.57
2023-09-22T01:17:47.048Z,73.78
2023-09-22T01:18:19.095Z,73.56
2023-09-22T01:18:51.108Z,74.27
2023-09-22T01:19:23.079Z,74.01
2023-09-22T01:19:55.002Z,73.64
2023-09-22T01:20:26.930Z,73.39
2023-09-22T01:20:59.303Z,73.91
2023-09-22T01:21:32.995Z,73.92
2023-09-22T01:22:06.598Z,73.90
2023-09-22T01:22:38.617Z,73.78
2023-09-22T01:23:13.383Z,74.38
2023-09-22T01:23:45.441Z,73.86
2023-09-22T01:24:17.523Z,74.06
2023-09-22T01:24:49.775Z,73.65
2023-09-22T01:25:21.697Z,74.33
2023-09-22T01:25:53.807Z,73.89
2023-09-22T01:26:25.801Z,74.27
2023-09-22T01:26:57.786Z,74.27
2023-09-22T01:27:29.788Z,74.43
2023-09-22T01:28:01.823Z,73.95
2023-09-22T01:28:34.078Z,74.03
2023-09-22T01:29:09.813Z,74.19
2023-09-22T01:29:41.784Z,74.38
2023-09-22T01:30:15.737Z,74.28
2023-09-22T01:30:48.381Z,74.48
2023-09-22T01:31:20.498Z,74.23
2023-09-22T01:31:52.567Z,74.40
2023-09-22T01:32:24.650Z,74.13
2023-09-22T01:32:56.661Z,74.51
2023-09-22T01:33:29.222Z,74.57
2023-09-22T01:34:04.691Z,74.36
2023-09-22T01:34:37.005Z,74.49
2023-09-22T01:35:09.724Z,74.32
2023-09-22T01:35:42.065Z,74.59
2023-09-22T01:36:17.198Z,74.48
2023-09-22T01:36:49.202Z,74.22
2023-09-22T01:37:30.004Z,74.30
2023-09-22T01:38:14.340Z,74.81
2023-09-22T01:38:46.450Z,74.81
2023-09-22T01:39:19.138Z,74.54
2023-09-22T01:39:52.292Z,74.69
2023-09-22T01:40:24.349Z,74.85
2023-09-22T01:40:59.272Z,74.79
2023-09-22T01:41:31.367Z,74.81
2023-09-22T01:42:03.472Z,74.97
2023-09-22T01:42:36.122Z,74.89
2023-09-22T01:43:08.098Z,74.85
2023-09-22T01:43:40.422Z,74.80
2023-09-22T01:44:12.409Z,75.35
2023-09-22T01:44:44.444Z,75.11
2023-09-22T01:45:16.882Z,74.94
2023-09-22T01:45:48.976Z,75.18
2023-09-22T01:46:21.173Z,75.23
2023-09-22T01:46:53.193Z,75.14
2023-09-22T01:47:25.227Z,75.39
2023-09-22T01:47:57.193Z,75.50
2023-09-22T01:48:29.197Z,75.62
2023-09-22T01:49:01.185Z,75.16
2023-09-22T01:49:33.325Z,75.35
2023-09-22T01:50:05.893Z,75.26
2023-09-22T01:50:41.861Z,75.31
2023-09-22T01:51:13.769Z,75.20
2023-09-22T01:51:45.709Z,75.44
2023-09-22T01:52:18.109Z,75.56
2023-09-22T01:52:50.115Z,75.40
2023-09-22T01:53:22.040Z,75.36
2023-09-22T01:53:56.628Z,75.66
2023-09-22T01:54:28.660Z,75.70
2023-09-22T01:55:00.669Z,75.59
2023-09-22T01:55:33.084Z,75.40
2023-09-22T01:56:06.986Z,75.27
2023-09-22T01:56:38.906Z,75.47
2023-09-22T01:57:10.819Z,75.48
2023-09-22T01:57:42.880Z,75.55
2023-09-22T01:58:14.836Z,75.89
2023-09-22T01:58:46.944Z,75.60
2023-09-22T01:59:18.953Z,75.49
2023-09-22T01:59:50.965Z,75.68
2023-09-22T02:00:22.914Z,75.56
2023-09-22T02:00:55.314Z,75.67
2023-09-22T02:01:27.367Z,75.48
2023-09-22T02:01:59.401Z,75.89
2023-09-22T02:02:31.719Z,75.69
2023-09-22T02:03:04.364Z,75.37
2023-09-22T02:03:36.497Z,75.78
2023-09-22T02:04:09.077Z,75.80
2023-09-22T02:04:41.506Z,75.86
2023-09-22T02:05:15.796Z,75.91
2023-09-22T02:05:47.814Z,75.70
2023-09-22T02:06:19.755Z,75.85
2023-09-22T02:06:53.027Z,75.96
2023-09-22T02:07:25.037Z,75.88
2023-09-22T02:07:58.489Z,75.75
2023-09-22T02:08:30.398Z,76.13
2023-09-22T02:09:02.898Z,75.75
2023-09-22T02:09:35.354Z,76.17
2023-09-22T02:10:08.037Z,75.78
2023-09-22T02:10:39.967Z,76.29
2023-09-22T02:11:13.169Z,76.06
2023-09-22T02:11:45.226Z,75.93
2023-09-22T02:12:17.167Z,76.04
2023-09-22T02:12:49.236Z,76.28
2023-09-22T02:13:21.218Z,75.81
2023-09-22T02:13:53.126Z,76.34
2023-09-22T02:14:25.050Z,76.30
2023-09-22T02:14:57.838Z,76.59
2023-09-22T02:15:29.800Z,76.69
2023-09-22T02:16:02.079Z,76.39
2023-09-22T02:16:34.183Z,76.56
2023-09-22T02:17:06.181Z,76.55
2023-09-22T02:17:39.404Z,76.78
2023-09-22T02:18:12.962Z,76.79
2023-09-22T02:18:45.263Z,76.45
2023-09-22T02:19:17.507Z,76.67
2023-09-22T02:19:49.453Z,76.74
2023-09-22T02:20:24.603Z,76.60
2023-09-22T02:20:56.508Z,76.69
2023-09-22T02:21:28.616Z,76.69
2023-09-22T02:22:03.147Z,76.93
2023-09-22T02:22:35.100Z,76.56
2023-09-22T02:23:07.011Z,76.73
2023-09-22T02:23:42.216Z,76.58
2023-09-22T02:24:14.174Z,76.90
2023-09-22T02:24:47.087Z,76.89
2023-09-22T02:25:19.514Z,76.65
2023-09-22T02:25:51.424Z,77.01
2023-09-22T02:26:23.375Z,76.88
2023-09-22T02:26:55.318Z,77.10
2023-09-22T02:27:27.784Z,76.99
2023-09-22T02:28:00.221Z,76.86
2023-09-22T02:28:32.172Z,76.83
2023-09-22T02:29:04.161Z,77.03
2023-09-22T02:29:36.112Z,76.77
2023-09-22T02:30:09.471Z,76.88
2023-09-22T02:30:41.469Z,77.01
2023-09-22T02:31:13.835Z,76.98
2023-09-22T02:31:46.250Z,77.15
2023-09-22T02:32:18.262Z,77.11
2023-09-22T02:32:50.783Z,77.22
2023-09-22T02:33:22.867Z,77.08
2023-09-22T02:33:54.901Z,77.25
2023-09-22T02:34:26.899Z,77.30
2023-09-22T02:34:59.357Z,77.10
2023-09-22T02:35:31.264Z,77.45
2023-09-22T02:36:06.068Z,76.89
2023-09-22T02:36:39.934Z,77.07
2023-09-22T02:37:11.861Z,77.21
2023-09-22T02:37:43.862Z,77.30
2023-09-22T02:38:15.779Z,77.16
2023-09-22T02:38:47.743Z,77.12
2023-09-22T02:39:19.652Z,77.33
2023-09-22T02:39:51.654Z,77.25
2023-09-22T02:40:23.587Z,77.75
2023-09-22T02:40:55.539Z,77.12
2023-09-22T02:41:27.725Z,77.46
2023-09-22T02:41:59.627Z,76.91
2023-09-22T02:42:31.575Z,76.86
2023-09-22T02:43:04.738Z,77.34
2023-09-22T02:43:36.761Z,77.84
2023-09-22T02:44:10.060Z,77.37
2023-09-22T02:44:42.096Z,77.51
2023-09-22T02:45:14.562Z,77.16
2023-09-22T02:45:46.801Z,77.61
2023-09-22T02:46:19.002Z,77.24
2023-09-22T02:46:51.117Z,77.20
2023-09-22T02:47:23.680Z,77.51
2023-09-22T02:47:55.785Z,77.47
2023-09-22T02:48:27.793Z,77.78
2023-09-22T02:48:59.784Z,77.59
2023-09-22T02:49:31.813Z,77.68
2023-09-22T02:50:05.202Z,77.64
2023-09-22T02:50:39.470Z,77.68
2023-09-22T02:51:11.412Z,77.54
2023-09-22T02:51:43.422Z,77.41
2023-09-22T02:52:15.430Z,77.39
2023-09-22T02:52:47.444Z,77.46
2023-09-22T02:53:19.404Z,77.67
2023-09-22T02:53:51.838Z,77.55
2023-09-22T02:54:24.232Z,77.88
2023-09-22T02:54:57.116Z,77.99
2023-09-22T02:55:29.077Z,77.63
2023-09-22T02:56:06.970Z,77.74
2023-09-22T02:56:38.974Z,77.83
2023-09-22T02:57:10.987Z,77.73
2023-09-22T02:57:44.223Z,77.80
2023-09-22T02:58:16.305Z,77.83
2023-09-22T02:58:49.296Z,77.70
2023-09-22T02:59:21.234Z,77.75
2023-09-22T02:59:56.527Z,77.92
2023-09-22T03:00:28.893Z,77.76
2023-09-22T03:01:01.039Z,78.14
2023-09-22T03:01:33.245Z,78.10
2023-09-22T03:02:05.253Z,78.09
2023-09-22T03:02:37.245Z,78.08
2023-09-22T03:03:09.329Z,78.42
2023-09-22T03:03:44.760Z,78.17
2023-09-22T03:04:17.144Z,78.24
2023-09-22T03:04:49.149Z,78.03
2023-09-22T03:05:24.054Z,78.18
2023-09-22T03:06:00.484Z,78.44
2023-09-22T03:06:32.451Z,78.19
2023-09-22T03:07:04.419Z,78.50
2023-09-22T03:07:36.342Z,78.38
2023-09-22T03:08:08.241Z,78.38
2023-09-22T03:08:43.992Z,78.68
2023-09-22T03:09:16.576Z,78.60
2023-09-22T03:09:48.598Z,78.74
2023-09-22T03:10:20.613Z,78.83
2023-09-22T03:10:52.543Z,78.45
2023-09-22T03:11:24.557Z,78.76
2023-09-22T03:11:56.485Z,78.79
2023-09-22T03:12:28.494Z,78.73
2023-09-22T03:13:00.590Z,79.02
2023-09-22T03:13:32.882Z,78.52
2023-09-22T03:14:05.209Z,78.24
2023-09-22T03:14:37.196Z,78.24
2023-09-22T03:15:13.074Z,78.36
2023-09-22T03:15:45.127Z,77.88
2023-09-22T03:16:17.206Z,78.29
2023-09-22T03:16:49.597Z,78.21
2023-09-22T03:17:21.565Z,78.27
2023-09-22T03:17:53.530Z,78.48
2023-09-22T03:18:25.794Z,78.38
2023-09-22T03:18:58.125Z,78.21
2023-09-22T03:19:30.129Z,78.63
2023-09-22T03:20:02.059Z,78.81
2023-09-22T03:20:33.977Z,78.36
2023-09-22T03:21:06.420Z,78.59
2023-09-22T03:21:38.518Z,78.53
2023-09-22T03:22:10.426Z,78.41
2023-09-22T03:22:42.547Z,78.24
2023-09-22T03:23:14.492Z,78.52
2023-09-22T03:23:47.595Z,78.55
2023-09-22T03:24:19.558Z,78.36
2023-09-22T03:24:51.575Z,78.53
2023-09-22T03:25:23.526Z,78.99
2023-09-22T03:25:55.845Z,79.07
2023-09-22T03:26:27.770Z,78.90
2023-09-22T03:26:59.797Z,78.82
2023-09-22T03:27:37.716Z,79.37
2023-09-22T03:28:09.801Z,79.17
2023-09-22T03:28:42.224Z,78.98
2023-09-22T03:29:14.137Z,79.00
2023-09-22T03:29:46.144Z,79.02
2023-09-22T03:30:18.989Z,79.38
2023-09-22T03:30:50.994Z,79.10
2023-09-22T03:31:24.240Z,79.47
2023-09-22T03:31:56.283Z,79.19
2023-09-22T03:32:28.729Z,79.35
2023-09-22T03:33:01.318Z,79.44
2023-09-22T03:33:33.310Z,79.50
2023-09-22T03:34:05.793Z,79.42
2023-09-22T03:34:37.806Z,79.42
2023-09-22T03:35:10.087Z,79.38
2023-09-22T03:35:42.138Z,79.21
2023-09-22T03:36:14.650Z,79.59
2023-09-22T03:36:46.603Z,79.51
2023-09-22T03:37:20.055Z,79.38
2023-09-22T03:37:53.618Z,79.37
2023-09-22T03:38:27.238Z,79.34
2023-09-22T03:38:59.161Z,79.42
2023-09-22T03:39:32.071Z,79.42
2023-09-22T03:40:27.366Z,79.52
2023-09-22T03:41:02.140Z,79.52
2023-09-22T03:41:36.588Z,79.66
2023-09-22T03:42:08.773Z,79.59
2023-09-22T03:42:42.188Z,79.37
2023-09-22T03:43:14.213Z,79.19
2023-09-22T03:43:46.777Z,79.16
2023-09-22T03:44:18.680Z,79.64
2023-09-22T03:44:52.139Z,79.62
2023-09-22T03:45:24.180Z,80.02
2023-09-22T03:45:56.366Z,79.71
2023-09-22T03:46:28.331Z,79.78
2023-09-22T03:47:01.145Z,79.61
2023-09-22T03:47:33.748Z,79.66
2023-09-22T03:48:06.266Z,79.69
2023-09-22T03:48:38.987Z,79.56
2023-09-22T03:49:10.970Z,79.71
2023-09-22T03:49:42.941Z,79.89
2023-09-22T03:50:15.877Z,79.40
2023-09-22T03:50:48.173Z,79.59
2023-09-22T03:51:20.103Z,80.04
2023-09-22T03:51:52.269Z,79.95
2023-09-22T03:52:24.188Z,80.07
2023-09-22T03:52:56.128Z,80.26
2023-09-22T03:53:28.630Z,80.07
2023-09-22T03:54:00.634Z,79.79
2023-09-22T03:54:32.578Z,79.70
2023-09-22T03:55:04.836Z,79.48
2023-09-22T03:55:37.716Z,79.37
2023-09-22T03:56:10.361Z,79.66
2023-09-22T03:56:42.586Z,79.80
2023-09-22T03:57:14.481Z,79.66
2023-09-22T03:57:46.469Z,79.75
2023-09-22T03:58:18.537Z,79.62
2023-09-22T03:58:50.477Z,79.98
2023-09-22T03:59:22.394Z,79.91
2023-09-22T03:59:54.304Z,79.51
2023-09-22T04:00:29.888Z,79.52
2023-09-22T04:01:06.906Z,80.25
2023-09-22T04:01:40.259Z,79.93
2023-09-22T04:02:12.268Z,79.80
2023-09-22T04:02:45.403Z,79.53
2023-09-22T04:03:19.078Z,79.86
2023-09-22T04:03:51.403Z,79.10
2023-09-22T04:04:23.623Z,79.25
2023-09-22T04:04:55.741Z,79.67
2023-09-22T04:05:27.718Z,79.25
2023-09-22T04:05:59.938Z,79.35
2023-09-22T04:06:32.435Z,79.28
2023-09-22T04:07:04.673Z,79.40
2023-09-22T04:07:36.746Z,79.30
2023-09-22T04:08:08.692Z,79.29
2023-09-22T04:08:40.667Z,79.34
2023-09-22T04:09:12.734Z,79.42
2023-09-22T04:09:45.841Z,79.19
2023-09-22T04:10:18.530Z,79.49
2023-09-22T04:10:50.728Z,79.19
2023-09-22T04:11:22.631Z,79.23
2023-09-22T04:11:54.546Z,79.35
2023-09-22T04:12:26.997Z,79.28
2023-09-22T04:12:59.028Z,79.17
2023-09-22T04:13:31.293Z,79.28
2023-09-22T04:14:04.062Z,79.38
2023-09-22T04:14:40.823Z,79.25
2023-09-22T04:15:14.326Z,78.88
2023-09-22T04:15:46.893Z,79.47
2023-09-22T04:16:18.916Z,79.35
2023-09-22T04:16:51.469Z,79.78
2023-09-22T04:17:23.742Z,79.32
2023-09-22T04:17:55.931Z,79.42
2023-09-22T04:18:30.648Z,79.71
2023-09-22T04:19:02.676Z,79.27
2023-09-22T04:19:34.720Z,79.55
2023-09-22T04:20:09.591Z,79.81
2023-09-22T04:20:45.414Z,79.62
2023-09-22T04:21:17.560Z,79.85
2023-09-22T04:21:51.072Z,79.92
2023-09-22T04:22:23.157Z,79.71
2023-09-22T04:22:55.060Z,79.62
2023-09-22T04:23:27.038Z,79.45
2023-09-22T04:23:58.984Z,79.67
2023-09-22T04:24:33.565Z,79.65
2023-09-22T04:25:12.062Z,79.79
2023-09-22T04:25:43.992Z,79.83
2023-09-22T04:26:17.782Z,79.52
2023-09-22T04:26:50.468Z,79.69
2023-09-22T04:27:22.397Z,79.47
2023-09-22T04:27:56.246Z,79.69
2023-09-22T04:28:28.352Z,79.58
2023-09-22T04:29:01.210Z,79.72
2023-09-22T04:29:37.131Z,79.54
2023-09-22T04:30:10.785Z,79.84
2023-09-22T04:30:42.914Z,79.67
2023-09-22T04:31:14.978Z,79.99
2023-09-22T04:31:46.990Z,80.20
2023-09-22T04:32:19.611Z,79.81
2023-09-22T04:32:53.004Z,80.08
2023-09-22T04:33:25.187Z,80.07
2023-09-22T04:33:57.127Z,79.64
2023-09-22T04:34:29.310Z,79.48
2023-09-22T04:35:02.143Z,79.68
2023-09-22T04:35:34.126Z,79.39
2023-09-22T04:36:06.274Z,79.53
2023-09-22T04:36:38.236Z,79.64
2023-09-22T04:37:10.238Z,79.75
2023-09-22T04:37:42.173Z,79.57
2023-09-22T04:38:15.691Z,79.54
2023-09-22T04:38:47.634Z,79.67
2023-09-22T04:39:22.652Z,79.70
2023-09-22T04:39:55.892Z,79.69
2023-09-22T04:40:30.938Z,79.68
2023-09-22T04:41:02.984Z,79.79
2023-09-22T04:41:34.916Z,79.78
2023-09-22T04:42:06.839Z,79.68
2023-09-22T04:42:39.137Z,79.45
2023-09-22T04:43:12.460Z,79.50
2023-09-22T04:43:44.546Z,79.39
2023-09-22T04:44:17.156Z,79.18
2023-09-22T04:44:52.147Z,79.40
2023-09-22T04:45:24.715Z,79.12
2023-09-22T04:45:56.918Z,78.98
2023-09-22T04:46:29.268Z,79.23
2023-09-22T04:47:01.403Z,79.21
2023-09-22T04:47:33.399Z,79.25
2023-09-22T04:48:08.850Z,78.94
2023-09-22T04:48:41.046Z,78.95
2023-09-22T04:49:13.068Z,79.08
2023-09-22T04:49:45.061Z,79.18
2023-09-22T04:50:18.983Z,78.97
2023-09-22T04:50:57.169Z,79.05
2023-09-22T04:51:29.353Z,79.13
2023-09-22T04:52:04.209Z,78.95
2023-09-22T04:52:36.264Z,78.65
2023-09-22T04:53:09.560Z,78.79
2023-09-22T04:53:42.590Z,78.69
2023-09-22T04:54:14.568Z,78.42
2023-09-22T04:54:46.526Z,78.54
2023-09-22T04:55:19.491Z,78.55
2023-09-22T04:56:04.816Z,78.07
2023-09-22T04:56:36.721Z,77.80
2023-09-22T04:57:08.622Z,78.10
2023-09-22T04:57:42.045Z,78.06
2023-09-22T04:58:15.665Z,77.79
2023-09-22T04:58:48.774Z,78.25
2023-09-22T04:59:20.724Z,78.27
2023-09-22T04:59:54.529Z,78.17
2023-09-22T05:00:28.378Z,77.79
2023-09-22T05:01:02.854Z,77.97
2023-09-22T05:01:34.962Z,77.93
2023-09-22T05:02:06.954Z,78.10
2023-09-22T05:02:39.019Z,77.95
2023-09-22T05:03:11.677Z,78.10
2023-09-22T05:03:44.344Z,78.01
2023-09-22T05:04:16.630Z,77.87
2023-09-22T05:04:49.294Z,77.87
2023-09-22T05:05:23.522Z,77.99
2023-09-22T05:05:56.060Z,77.91
2023-09-22T05:06:29.237Z,78.22
2023-09-22T05:07:01.246Z,78.11
2023-09-22T05:07:34.849Z,77.46
2023-09-22T05:08:06.842Z,77.63
2023-09-22T05:08:38.860Z,77.87
2023-09-22T05:09:12.110Z,76.97
2023-09-22T05:09:45.158Z,77.18
2023-09-22T05:10:17.403Z,77.28
2023-09-22T05:10:49.356Z,77.15
2023-09-22T05:11:21.652Z,77.36
2023-09-22T05:11:53.594Z,76.55
2023-09-22T05:12:25.609Z,77.13
2023-09-22T05:13:00.107Z,77.03
2023-09-22T05:13:34.231Z,76.60
2023-09-22T05:14:06.144Z,77.11
2023-09-22T05:14:38.239Z,76.89
2023-09-22T05:15:10.824Z,76.80
2023-09-22T05:15:44.626Z,76.96
2023-09-22T05:16:19.551Z,77.21
2023-09-22T05:16:52.149Z,77.14
2023-09-22T05:17:24.479Z,77.04
2023-09-22T05:17:56.524Z,76.92
2023-09-22T05:18:28.511Z,76.78
2023-09-22T05:19:03.850Z,76.64
2023-09-22T05:19:35.793Z,76.48
2023-09-22T05:20:13.576Z,76.70
2023-09-22T05:20:46.044Z,76.42
2023-09-22T05:21:18.281Z,76.61
2023-09-22T05:21:50.232Z,77.03
2023-09-22T05:22:22.340Z,76.96
2023-09-22T05:22:54.310Z,76.56
2023-09-22T05:23:26.252Z,76.61
2023-09-22T05:23:58.171Z,77.03
2023-09-22T05:24:30.489Z,77.05
2023-09-22T05:25:02.474Z,76.92
2023-09-22T05:25:39.615Z,77.09
2023-09-22T05:26:11.558Z,76.87
2023-09-22T05:26:43.627Z,76.81
2023-09-22T05:27:16.455Z,77.29
2023-09-22T05:27:49.424Z,76.70
2023-09-22T05:28:21.400Z,76.91
2023-09-22T05:28:53.334Z,77.13
2023-09-22T05:29:25.300Z,76.54
2023-09-22T05:29:57.232Z,76.75
2023-09-22T05:30:29.656Z,76.96
2023-09-22T05:31:01.975Z,77.07
2023-09-22T05:31:37.687Z,76.91
2023-09-22T05:32:10.895Z,76.88
2023-09-22T05:32:49.531Z,77.14
2023-09-22T05:33:21.573Z,76.88
2023-09-22T05:33:53.941Z,76.97
2023-09-22T05:34:25.952Z,77.48
2023-09-22T05:34:58.911Z,77.28
2023-09-22T05:35:30.980Z,77.33
2023-09-22T05:36:06.290Z,77.38
2023-09-22T05:36:41.431Z,76.84
2023-09-22T05:37:13.367Z,77.09
2023-09-22T05:37:52.095Z,77.15
2023-09-22T05:38:24.104Z,77.43
2023-09-22T05:38:56.068Z,76.74
2023-09-22T05:39:28.182Z,76.89
2023-09-22T05:40:00.718Z,77.38
2023-09-22T05:40:36.047Z,77.24
2023-09-22T05:41:10.188Z,76.67
2023-09-22T05:41:49.052Z,76.88
2023-09-22T05:42:20.971Z,76.92
2023-09-22T05:42:53.045Z,76.66
2023-09-22T05:43:25.089Z,76.88
2023-09-22T05:43:57.794Z,76.35
2023-09-22T05:44:30.447Z,76.25
2023-09-22T05:45:06.242Z,76.00
2023-09-22T05:45:38.346Z,76.56
2023-09-22T05:46:10.398Z,76.92
2023-09-22T05:46:42.576Z,76.42
2023-09-22T05:47:14.538Z,76.65
2023-09-22T05:47:46.570Z,75.86
2023-09-22T05:48:18.584Z,76.40
2023-09-22T05:48:50.786Z,75.87
2023-09-22T05:49:23.035Z,75.71
2023-09-22T05:49:55.136Z,76.17
2023-09-22T05:50:27.094Z,75.33
2023-09-22T05:51:01.024Z,75.47
2023-09-22T05:51:33.596Z,75.47
2023-09-22T05:52:05.634Z,75.82
2023-09-22T05:52:41.456Z,76.14
2023-09-22T05:53:15.045Z,75.96
2023-09-22T05:53:46.971Z,75.80
2023-09-22T05:54:18.917Z,75.68
2023-09-22T05:54:50.982Z,75.90
2023-09-22T05:55:29.173Z,75.42
2023-09-22T05:56:09.701Z,75.42
2023-09-22T05:56:41.878Z,75.42
2023-09-22T05:57:13.971Z,75.07
2023-09-22T05:57:47.272Z,74.84
2023-09-22T05:58:19.246Z,74.97
2023-09-22T05:58:51.169Z,74.68
2023-09-22T05:59:23.530Z,74.30
2023-09-22T05:59:56.814Z,74.67
2023-09-22T06:00:32.350Z,75.21
2023-09-22T06:01:08.713Z,75.20
2023-09-22T06:01:41.063Z,75.13
2023-09-22T06:02:13.062Z,74.88
2023-09-22T06:02:48.817Z,74.44
2023-09-22T06:03:21.698Z,74.43
2023-09-22T06:03:53.735Z,74.92
2023-09-22T06:04:26.404Z,74.77
2023-09-22T06:04:59.903Z,74.45
2023-09-22T06:05:32.855Z,74.96
2023-09-22T06:06:12.546Z,74.96
2023-09-22T06:06:44.692Z,74.88
2023-09-22T06:07:16.618Z,74.20
2023-09-22T06:07:48.558Z,73.95
2023-09-22T06:08:20.470Z,74.26
2023-09-22T06:08:52.417Z,73.65
2023-09-22T06:09:24.326Z,74.26
2023-09-22T06:09:56.277Z,73.28
2023-09-22T06:10:28.229Z,73.68
2023-09-22T06:11:02.890Z,73.37
2023-09-22T06:11:34.801Z,73.12
2023-09-22T06:12:07.585Z,72.84
2023-09-22T06:12:39.578Z,72.62
2023-09-22T06:13:11.553Z,72.63
2023-09-22T06:13:43.919Z,72.50
2023-09-22T06:14:16.920Z,72.29
2023-09-22T06:14:48.870Z,72.34
2023-09-22T06:15:20.777Z,72.92
2023-09-22T06:15:53.198Z,72.20
2023-09-22T06:16:27.117Z,72.66
2023-09-22T06:16:59.136Z,72.52
2023-09-22T06:17:31.518Z,72.03
2023-09-22T06:18:06.132Z,72.32
2023-09-22T06:18:38.988Z,71.82
2023-09-22T06:19:11.788Z,72.29
2023-09-22T06:19:43.787Z,71.55
2023-09-22T06:20:17.266Z,71.91
2023-09-22T06:20:50.308Z,71.48
2023-09-22T06:21:22.464Z,72.33
2023-09-22T06:21:54.437Z,71.88
2023-09-22T06:22:27.085Z,71.09
2023-09-22T06:22:59.070Z,72.09
2023-09-22T06:23:31.549Z,71.18
2023-09-22T06:24:03.656Z,71.02
2023-09-22T06:24:35.756Z,71.95
2023-09-22T06:25:09.428Z,70.88
2023-09-22T06:25:41.457Z,70.85
2023-09-22T06:26:13.369Z,71.24
2023-09-22T06:26:45.395Z,71.10
2023-09-22T06:27:17.650Z,70.58
2023-09-22T06:27:52.469Z,70.47
2023-09-22T06:28:26.834Z,70.97
2023-09-22T06:28:58.867Z,70.41
2023-09-22T06:29:30.803Z,70.66
2023-09-22T06:30:04.515Z,70.82
2023-09-22T06:30:36.514Z,70.81
2023-09-22T06:31:08.609Z,70.81
2023-09-22T06:31:40.651Z,70.25
2023-09-22T06:32:12.609Z,71.04
2023-09-22T06:32:47.188Z,69.71
2023-09-22T06:33:19.894Z,69.87
2023-09-22T06:33:51.968Z,70.61
2023-09-22T06:34:23.981Z,70.12
2023-09-22T06:34:57.062Z,69.60
2023-09-22T06:35:29.122Z,69.63
2023-09-22T06:36:05.921Z,69.22
2023-09-22T06:36:37.935Z,69.40
2023-09-22T06:37:10.440Z,69.49
2023-09-22T06:37:42.827Z,68.86
2023-09-22T06:38:15.370Z,69.36
2023-09-22T06:38:47.392Z,68.32
2023-09-22T06:39:19.347Z,68.82
2023-09-22T06:39:51.408Z,68.87
2023-09-22T06:40:23.352Z,68.50
2023-09-22T06:40:56.589Z,68.88
2023-09-22T06:41:28.541Z,68.22
2023-09-22T06:42:00.854Z,68.71
2023-09-22T06:42:32.881Z,68.40
2023-09-22T06:43:17.048Z,68.37
2023-09-22T06:43:58.566Z,67.74
2023-09-22T06:44:30.967Z,67.34
2023-09-22T06:45:03.508Z,67.58
2023-09-22T06:45:40.193Z,66.50
2023-09-22T06:46:12.599Z,67.65
2023-09-22T06:46:44.623Z,67.39
2023-09-22T06:47:16.615Z,67.36
2023-09-22T06:47:50.072Z,66.70
2023-09-22T06:48:29.288Z,66.91
2023-09-22T06:49:01.308Z,67.07
2023-09-22T06:49:37.468Z,66.96
2023-09-22T06:50:10.825Z,66.78
2023-09-22T06:50:42.792Z,66.61
2023-09-22T06:51:19.637Z,65.88
2023-09-22T06:51:52.184Z,66.34
2023-09-22T06:52:24.238Z,65.86
2023-09-22T06:52:56.137Z,66.22
2023-09-22T06:53:29.599Z,65.36
2023-09-22T06:54:01.581Z,65.17
2023-09-22T06:54:33.587Z,65.10
2023-09-22T06:55:16.259Z,64.98
2023-09-22T06:55:49.409Z,65.08
2023-09-22T06:56:24.843Z,64.60
2023-09-22T06:57:04.154Z,64.39
2023-09-22T06:57:37.707Z,63.76
2023-09-22T06:58:09.733Z,63.77
2023-09-22T06:58:42.092Z,63.68
2023-09-22T06:59:14.736Z,63.50
2023-09-22T06:59:46.656Z,63.35
2023-09-22T07:00:23.997Z,63.25
2023-09-22T07:00:57.892Z,62.95
2023-09-22T07:01:30.129Z,63.08
2023-09-22T07:02:02.477Z,63.02
2023-09-22T07:02:34.469Z,62.61